createdAt,value
2022-08-26T00:02:23.914Z,19.40
2022-08-26T00:06:27.599Z,19.40
2022-08-26T00:10:31.113Z,19.40
2022-08-26T00:14:34.547Z,19.30
2022-08-26T00:18:40.717Z,19.20
2022-08-26T00:22:44.390Z,19.20
2022-08-26T00:26:48.984Z,19.30
2022-08-26T00:30:52.708Z,19.20
2022-08-26T00:34:56.338Z,19.10
2022-08-26T00:39:00.341Z,19.10
2022-08-26T00:43:09.502Z,19.00
2022-08-26T00:47:33.184Z,18.90
2022-08-26T00:51:44.702Z,18.90
2022-08-26T00:55:55.290Z,18.80
2022-08-26T01:00:01.325Z,18.70
2022-08-26T01:04:06.161Z,18.70
2022-08-26T01:08:10.322Z,18.70
2022-08-26T01:12:14.939Z,18.70
2022-08-26T01:16:25.889Z,18.60
2022-08-26T01:21:28.805Z,18.60
2022-08-26T01:25:37.313Z,18.60
2022-08-26T01:29:45.575Z,18.60
2022-08-26T01:34:17.611Z,18.50
2022-08-26T01:38:23.650Z,18.40
2022-08-26T01:42:28.532Z,18.30
2022-08-26T01:46:34.478Z,18.40
2022-08-26T01:50:39.569Z,18.30
2022-08-26T01:54:43.262Z,18.20
2022-08-26T01:58:57.173Z,18.20
2022-08-26T02:03:21.844Z,18.20
2022-08-26T02:07:27.116Z,18.20
2022-08-26T02:11:30.644Z,18.10
2022-08-26T02:15:34.729Z,18.10
2022-08-26T02:19:42.593Z,18.00
2022-08-26T02:23:46.566Z,17.90
2022-08-26T02:27:50.713Z,17.90
2022-08-26T02:31:55.939Z,17.90
2022-08-26T02:36:00.422Z,17.90
2022-08-26T02:40:06.123Z,17.90
2022-08-26T02:44:10.116Z,17.80
2022-08-26T02:48:19.898Z,17.70
2022-08-26T02:52:23.482Z,17.70
2022-08-26T02:56:26.876Z,17.70
2022-08-26T03:00:31.775Z,17.70
2022-08-26T03:04:35.362Z,17.70
2022-08-26T03:08:39.634Z,17.70
2022-08-26T03:12:47.441Z,17.70
2022-08-26T03:16:54.822Z,17.70
2022-08-26T03:20:59.773Z,17.70
2022-08-26T03:23:39.253Z,16.50
2022-08-26T03:25:07.183Z,17.70
2022-08-26T03:27:43.656Z,16.50
2022-08-26T03:29:29.206Z,17.60
2022-08-26T03:31:47.391Z,16.50
2022-08-26T03:33:36.481Z,17.60
2022-08-26T03:35:52.602Z,16.60
2022-08-26T03:37:40.994Z,17.70
2022-08-26T03:39:56.500Z,16.60
2022-08-26T03:41:47.277Z,17.60
2022-08-26T03:44:01.794Z,16.60
2022-08-26T03:45:51.276Z,17.60
2022-08-26T03:48:06.363Z,16.50
2022-08-26T03:49:54.756Z,17.70
2022-08-26T03:52:10.969Z,16.50
2022-08-26T03:54:00.880Z,17.70
2022-08-26T03:56:15.333Z,16.50
2022-08-26T03:58:06.640Z,17.60
2022-08-26T04:00:20.802Z,16.40
2022-08-26T04:02:11.581Z,17.60
2022-08-26T04:04:24.701Z,16.40
2022-08-26T04:06:17.363Z,17.60
2022-08-26T04:08:28.553Z,16.40
2022-08-26T04:10:29.064Z,17.60
2022-08-26T04:12:32.504Z,16.40
2022-08-26T04:14:33.152Z,17.50
2022-08-26T04:16:36.584Z,16.40
2022-08-26T04:18:38.399Z,17.60
2022-08-26T04:20:40.466Z,16.40
2022-08-26T04:22:51.026Z,17.50
2022-08-26T04:24:44.242Z,16.30
2022-08-26T04:26:56.614Z,17.50
2022-08-26T04:28:50.598Z,16.40
2022-08-26T04:31:00.899Z,17.50
2022-08-26T04:32:54.520Z,16.40
2022-08-26T04:35:05.118Z,17.50
2022-08-26T04:36:59.006Z,16.40
2022-08-26T04:39:16.843Z,17.50
2022-08-26T04:41:05.459Z,16.40
2022-08-26T04:43:22.357Z,17.50
2022-08-26T04:45:11.605Z,16.40
2022-08-26T04:47:29.183Z,17.50
2022-08-26T04:49:16.164Z,16.50
2022-08-26T04:51:36.672Z,17.50
2022-08-26T04:53:20.048Z,16.60
2022-08-26T04:55:44.188Z,17.60
2022-08-26T04:57:23.847Z,16.70
2022-08-26T04:59:48.559Z,17.60
2022-08-26T05:01:27.647Z,16.70
2022-08-26T05:03:53.230Z,17.60
2022-08-26T05:05:33.084Z,16.90
2022-08-26T05:07:57.511Z,17.60
2022-08-26T05:09:40.845Z,17.00
2022-08-26T05:12:00.986Z,17.70
2022-08-26T05:13:44.723Z,17.00
2022-08-26T05:16:06.475Z,17.70
2022-08-26T05:17:51.733Z,17.30
2022-08-26T05:20:11.202Z,17.70
2022-08-26T05:21:55.902Z,17.90
2022-08-26T05:24:17.776Z,17.80
2022-08-26T05:26:00.606Z,19.00
2022-08-26T05:28:22.266Z,17.90
2022-08-26T05:30:06.796Z,20.00
2022-08-26T05:32:25.811Z,18.10
2022-08-26T05:34:10.617Z,20.80
2022-08-26T05:36:33.900Z,18.20
2022-08-26T05:38:16.240Z,21.50
2022-08-26T05:40:41.709Z,18.40
2022-08-26T05:42:20.693Z,22.30
2022-08-26T05:44:54.052Z,18.60
2022-08-26T05:46:27.258Z,23.00
2022-08-26T05:48:59.958Z,18.70
2022-08-26T05:50:31.558Z,23.50
2022-08-26T05:53:03.577Z,18.90
2022-08-26T05:54:36.638Z,24.10
2022-08-26T05:57:07.947Z,19.20
2022-08-26T05:58:43.634Z,24.70
2022-08-26T06:01:15.522Z,19.70
2022-08-26T06:02:52.372Z,25.30
2022-08-26T06:05:19.359Z,20.00
2022-08-26T06:06:56.279Z,25.80
2022-08-26T06:09:29.311Z,20.40
2022-08-26T06:11:03.519Z,26.20
2022-08-26T06:13:35.370Z,20.70
2022-08-26T06:15:10.196Z,26.60
2022-08-26T06:17:38.854Z,21.00
2022-08-26T06:19:16.047Z,27.00
2022-08-26T06:21:47.230Z,21.40
2022-08-26T06:23:38.998Z,27.40
2022-08-26T06:25:54.828Z,21.70
2022-08-26T06:27:44.798Z,27.70
2022-08-26T06:29:58.291Z,21.90
2022-08-26T06:31:50.246Z,28.00
2022-08-26T06:34:03.689Z,22.10
2022-08-26T06:35:56.079Z,28.40
2022-08-26T06:38:10.150Z,22.20
2022-08-26T06:40:02.959Z,28.80
2022-08-26T06:42:13.708Z,22.30
2022-08-26T06:44:08.447Z,29.10
2022-08-26T06:46:20.606Z,22.60
2022-08-26T06:48:14.763Z,29.20
2022-08-26T06:50:24.981Z,22.80
2022-08-26T06:52:23.068Z,28.30
2022-08-26T06:54:33.092Z,23.10
2022-08-26T06:56:34.440Z,27.20
2022-08-26T06:58:38.350Z,23.40
2022-08-26T07:00:39.794Z,26.50
2022-08-26T07:02:46.864Z,23.70
2022-08-26T07:04:47.741Z,26.00
2022-08-26T07:06:53.583Z,23.90
2022-08-26T07:09:01.589Z,25.80
2022-08-26T07:10:57.376Z,24.10
2022-08-26T07:13:08.057Z,25.60
2022-08-26T07:15:00.900Z,24.30
2022-08-26T07:17:14.005Z,25.50
2022-08-26T07:19:10.847Z,24.40
2022-08-26T07:21:18.857Z,25.50
2022-08-26T07:23:14.943Z,24.60
2022-08-26T07:25:22.742Z,25.50
2022-08-26T07:27:21.035Z,24.90
2022-08-26T07:29:27.013Z,25.50
2022-08-26T07:31:26.711Z,25.10
2022-08-26T07:33:31.090Z,25.50
2022-08-26T07:35:30.313Z,25.20
2022-08-26T07:37:39.354Z,25.50
2022-08-26T07:39:35.225Z,25.40
2022-08-26T07:41:43.466Z,25.50
2022-08-26T07:43:38.659Z,25.60
2022-08-26T07:45:47.665Z,25.60
2022-08-26T07:47:42.938Z,25.80
2022-08-26T07:49:52.848Z,25.60
2022-08-26T07:51:47.097Z,26.00
2022-08-26T07:53:58.180Z,25.70
2022-08-26T07:55:51.813Z,26.20
2022-08-26T07:58:02.917Z,25.80
2022-08-26T07:59:56.102Z,26.60
2022-08-26T08:02:07.088Z,25.80
2022-08-26T08:04:02.281Z,26.90
2022-08-26T08:06:10.849Z,25.90
2022-08-26T08:08:27.164Z,27.20
2022-08-26T08:10:19.534Z,26.00
2022-08-26T08:12:31.467Z,27.70
2022-08-26T08:14:24.992Z,26.00
2022-08-26T08:16:37.256Z,28.00
2022-08-26T08:18:32.581Z,26.10
2022-08-26T08:20:47.679Z,28.30
2022-08-26T08:22:36.720Z,26.20
2022-08-26T08:25:08.270Z,28.50
2022-08-26T08:26:40.813Z,26.30
2022-08-26T08:29:14.097Z,28.70
2022-08-26T08:30:46.152Z,26.40
2022-08-26T08:33:17.539Z,28.90
2022-08-26T08:34:50.773Z,26.50
2022-08-26T08:37:23.289Z,29.10
2022-08-26T08:38:54.812Z,26.60
2022-08-26T08:41:51.450Z,29.20
2022-08-26T08:43:10.151Z,26.80
2022-08-26T08:46:20.485Z,29.40
2022-08-26T08:47:36.809Z,26.90
2022-08-26T08:50:34.047Z,29.50
2022-08-26T08:51:46.330Z,27.00
2022-08-26T08:54:39.284Z,29.50
2022-08-26T08:56:05.188Z,27.20
2022-08-26T08:58:57.924Z,29.60
2022-08-26T09:00:18.568Z,27.40
2022-08-26T09:03:21.360Z,29.70
2022-08-26T09:04:52.861Z,27.50
2022-08-26T09:07:39.535Z,29.90
2022-08-26T09:08:58.783Z,27.70
2022-08-26T09:11:43.853Z,30.10
2022-08-26T09:13:08.670Z,28.00
2022-08-26T09:16:10.498Z,30.30
2022-08-26T09:17:44.011Z,28.10
2022-08-26T09:20:45.659Z,30.40
2022-08-26T09:21:59.487Z,28.20
2022-08-26T09:24:49.246Z,30.60
2022-08-26T09:26:29.205Z,28.40
2022-08-26T09:28:58.560Z,30.70
2022-08-26T09:30:35.741Z,28.60
2022-08-26T09:33:10.205Z,30.90
2022-08-26T09:34:56.445Z,28.80
2022-08-26T09:37:32.552Z,31.20
2022-08-26T09:39:01.091Z,29.00
2022-08-26T09:41:37.269Z,31.50
2022-08-26T09:43:23.180Z,29.10
2022-08-26T09:45:50.029Z,31.60
2022-08-26T09:47:28.342Z,29.20
2022-08-26T09:50:04.885Z,31.70
2022-08-26T09:51:33.130Z,29.40
2022-08-26T09:54:30.317Z,31.70
2022-08-26T09:55:40.054Z,29.50
2022-08-26T09:58:38.313Z,31.70
2022-08-26T09:59:44.640Z,29.60
2022-08-26T10:02:47.758Z,31.90
2022-08-26T10:03:51.811Z,29.90
2022-08-26T10:06:58.706Z,32.10
2022-08-26T10:07:56.841Z,30.10
2022-08-26T10:11:35.492Z,32.30
2022-08-26T10:12:12.080Z,31.10
2022-08-26T10:16:35.200Z,32.90
2022-08-26T10:20:49.946Z,34.50
2022-08-26T10:24:38.124Z,33.10
2022-08-26T10:25:00.275Z,35.80
2022-08-26T10:28:48.454Z,33.20
2022-08-26T10:29:27.928Z,36.60
2022-08-26T10:32:58.344Z,33.20
2022-08-26T10:33:32.116Z,37.10
2022-08-26T10:37:16.750Z,33.50
2022-08-26T10:37:54.459Z,37.10
2022-08-26T10:41:25.213Z,33.70
2022-08-26T10:42:08.820Z,37.50
2022-08-26T10:45:32.125Z,33.90
2022-08-26T10:46:22.993Z,37.50
2022-08-26T10:49:36.251Z,34.20
2022-08-26T10:50:36.257Z,37.00
2022-08-26T10:53:51.497Z,34.50
2022-08-26T10:55:28.371Z,36.80
2022-08-26T10:57:58.265Z,34.70
2022-08-26T10:59:36.843Z,36.60
2022-08-26T11:02:24.920Z,34.80
2022-08-26T11:03:59.669Z,36.50
2022-08-26T11:06:31.681Z,35.00
2022-08-26T11:08:21.910Z,36.20
2022-08-26T11:10:57.995Z,35.00
2022-08-26T11:12:37.677Z,35.40
2022-08-26T11:15:26.676Z,35.00
2022-08-26T11:16:44.652Z,34.80
2022-08-26T11:19:45.572Z,35.20
2022-08-26T11:20:49.161Z,34.20
2022-08-26T11:23:54.726Z,35.50
2022-08-26T11:24:56.543Z,33.20
2022-08-26T11:28:01.440Z,35.70
2022-08-26T11:29:00.636Z,32.00
2022-08-26T11:32:04.916Z,35.90
2022-08-26T11:33:08.732Z,30.80
2022-08-26T11:36:12.372Z,35.90
2022-08-26T11:40:21.798Z,35.70
2022-08-26T11:41:31.839Z,29.70
2022-08-26T11:44:42.230Z,35.60
2022-08-26T11:45:43.887Z,29.70
2022-08-26T11:49:03.596Z,35.40
2022-08-26T11:49:48.355Z,30.00
2022-08-26T11:53:08.640Z,35.30
2022-08-26T11:54:16.271Z,30.50
2022-08-26T11:57:14.729Z,35.60
2022-08-26T11:58:22.592Z,30.90
2022-08-26T12:01:36.521Z,35.80
2022-08-26T12:02:35.390Z,31.30
2022-08-26T12:05:45.746Z,36.10
2022-08-26T12:06:51.981Z,31.50
2022-08-26T12:10:02.200Z,36.20
2022-08-26T12:11:07.477Z,31.60
2022-08-26T12:14:36.395Z,36.30
2022-08-26T12:18:45.055Z,36.10
2022-08-26T12:19:43.930Z,32.00
2022-08-26T12:22:51.151Z,35.80
2022-08-26T12:23:50.167Z,32.40
2022-08-26T12:27:13.367Z,35.40
2022-08-26T12:27:54.160Z,33.00
2022-08-26T12:31:31.435Z,35.10
2022-08-26T12:32:29.469Z,33.40
2022-08-26T12:35:40.190Z,35.40
2022-08-26T12:39:45.549Z,35.60
2022-08-26T12:41:06.186Z,32.20
2022-08-26T12:43:49.201Z,35.60
2022-08-26T12:45:10.661Z,31.30
2022-08-26T12:47:56.464Z,35.70
2022-08-26T12:49:19.462Z,30.40
2022-08-26T12:52:00.208Z,35.60
2022-08-26T12:53:24.986Z,29.50
2022-08-26T12:56:18.670Z,35.60
2022-08-26T12:57:38.489Z,29.00
2022-08-26T13:00:28.288Z,35.70
2022-08-26T13:01:45.176Z,27.50
2022-08-26T13:04:52.579Z,35.70
2022-08-26T13:05:52.138Z,26.50
2022-08-26T13:09:16.412Z,35.50
2022-08-26T13:09:58.058Z,26.10
2022-08-26T13:13:23.486Z,35.10
2022-08-26T13:14:24.228Z,26.00
2022-08-26T13:17:33.548Z,34.60
2022-08-26T13:18:28.489Z,26.20
2022-08-26T13:22:00.464Z,34.30
2022-08-26T13:22:32.748Z,26.70
2022-08-26T13:26:06.634Z,34.00
2022-08-26T13:26:36.705Z,27.30
2022-08-26T13:30:16.754Z,33.60
2022-08-26T13:30:44.919Z,27.90
2022-08-26T13:34:30.077Z,33.10
2022-08-26T13:34:51.674Z,28.50
2022-08-26T13:38:39.188Z,32.60
2022-08-26T13:38:55.648Z,29.00
2022-08-26T13:42:49.981Z,32.30
2022-08-26T13:42:59.880Z,29.30
2022-08-26T13:46:59.987Z,31.80
2022-08-26T13:47:04.356Z,29.50
2022-08-26T13:51:07.561Z,31.30
2022-08-26T13:51:09.040Z,30.00
2022-08-26T13:55:13.251Z,30.50
2022-08-26T13:55:13.402Z,31.10
2022-08-26T13:59:16.801Z,31.00
2022-08-26T13:59:19.872Z,30.80
2022-08-26T14:03:20.262Z,31.10
2022-08-26T14:03:25.396Z,31.00
2022-08-26T14:07:24.056Z,31.40
2022-08-26T14:07:30.540Z,31.10
2022-08-26T14:11:27.898Z,31.60
2022-08-26T14:11:46.716Z,31.10
2022-08-26T14:15:35.753Z,31.80
2022-08-26T14:16:00.603Z,31.00
2022-08-26T14:19:40.352Z,31.80
2022-08-26T14:20:08.254Z,30.80
2022-08-26T14:23:44.144Z,32.00
2022-08-26T14:24:12.319Z,30.60
2022-08-26T14:27:47.978Z,32.00
2022-08-26T14:28:16.532Z,30.50
2022-08-26T14:31:51.599Z,32.00
2022-08-26T14:32:32.576Z,30.50
2022-08-26T14:36:15.025Z,31.90
2022-08-26T14:36:36.956Z,30.60
2022-08-26T14:40:20.219Z,31.60
2022-08-26T14:40:44.939Z,30.80
2022-08-26T14:44:30.754Z,31.30
2022-08-26T14:44:56.827Z,31.00
2022-08-26T14:48:34.196Z,31.30
2022-08-26T14:49:06.191Z,31.30
2022-08-26T14:52:57.552Z,31.40
2022-08-26T14:53:31.226Z,31.60
2022-08-26T14:57:05.748Z,31.60
2022-08-26T14:57:35.370Z,31.70
2022-08-26T15:01:09.410Z,31.80
2022-08-26T15:01:41.002Z,31.80
2022-08-26T15:05:13.318Z,32.10
2022-08-26T15:05:47.960Z,31.90
2022-08-26T15:09:18.293Z,32.20
2022-08-26T15:09:52.440Z,32.10
2022-08-26T15:13:21.684Z,32.30
2022-08-26T15:13:58.478Z,32.20
2022-08-26T15:17:26.460Z,32.30
2022-08-26T15:18:04.461Z,32.20
2022-08-26T15:21:30.074Z,32.20
2022-08-26T15:22:08.435Z,31.90
2022-08-26T15:25:33.740Z,32.10
2022-08-26T15:26:15.506Z,31.80
2022-08-26T15:29:38.092Z,31.80
2022-08-26T15:30:19.978Z,31.70
2022-08-26T15:33:41.600Z,31.60
2022-08-26T15:34:23.959Z,31.50
2022-08-26T15:37:46.235Z,31.50
2022-08-26T15:38:33.209Z,31.10
2022-08-26T15:41:49.980Z,31.40
2022-08-26T15:42:38.809Z,30.60
2022-08-26T15:45:56.519Z,31.30
2022-08-26T15:46:43.347Z,30.20
2022-08-26T15:49:59.913Z,31.10
2022-08-26T15:51:02.276Z,29.90
2022-08-26T15:54:05.026Z,31.00
2022-08-26T15:55:09.581Z,29.60
2022-08-26T15:58:12.927Z,30.90
2022-08-26T15:59:13.704Z,29.50
2022-08-26T16:02:16.491Z,30.80
2022-08-26T16:03:18.580Z,29.40
2022-08-26T16:06:22.161Z,30.60
2022-08-26T16:07:22.658Z,29.20
2022-08-26T16:10:25.726Z,30.60
2022-08-26T16:11:28.889Z,29.10
2022-08-26T16:14:29.167Z,30.40
2022-08-26T16:15:33.706Z,29.00
2022-08-26T16:18:32.747Z,30.30
2022-08-26T16:19:37.807Z,28.90
2022-08-26T16:22:36.744Z,30.20
2022-08-26T16:23:45.017Z,28.90
2022-08-26T16:26:42.739Z,30.10
2022-08-26T16:27:49.516Z,28.80
2022-08-26T16:30:47.033Z,30.10
2022-08-26T16:31:55.099Z,28.70
2022-08-26T16:34:56.423Z,30.00
2022-08-26T16:36:00.876Z,28.60
2022-08-26T16:39:00.475Z,29.90
2022-08-26T16:40:09.058Z,28.40
2022-08-26T16:43:04.384Z,29.80
2022-08-26T16:44:15.021Z,28.30
2022-08-26T16:47:07.949Z,29.60
2022-08-26T16:48:20.145Z,28.10
2022-08-26T16:51:17.636Z,29.50
2022-08-26T16:52:24.840Z,28.00
2022-08-26T16:55:22.607Z,29.40
2022-08-26T16:56:34.669Z,27.80
2022-08-26T16:59:26.131Z,29.30
2022-08-26T17:00:40.909Z,27.70
2022-08-26T17:03:29.549Z,29.20
2022-08-26T17:04:47.298Z,27.50
2022-08-26T17:07:33.040Z,29.10
2022-08-26T17:08:54.447Z,27.50
2022-08-26T17:11:39.010Z,29.00
2022-08-26T17:12:59.006Z,27.40
2022-08-26T17:15:54.143Z,29.10
2022-08-26T17:17:05.046Z,27.30
2022-08-26T17:20:06.448Z,29.10
2022-08-26T17:21:13.278Z,27.40
2022-08-26T17:24:09.932Z,29.10
2022-08-26T17:25:21.429Z,27.50
2022-08-26T17:28:14.597Z,29.10
2022-08-26T17:29:26.107Z,27.40
2022-08-26T17:32:18.372Z,29.10
2022-08-26T17:33:31.977Z,27.40
2022-08-26T17:36:27.469Z,29.10
2022-08-26T17:37:36.270Z,27.20
2022-08-26T17:40:32.021Z,29.00
2022-08-26T17:41:44.415Z,27.10
2022-08-26T17:44:35.511Z,29.00
2022-08-26T17:45:48.330Z,26.90
2022-08-26T17:48:40.468Z,28.90
2022-08-26T17:49:52.307Z,26.60
2022-08-26T17:52:44.393Z,28.80
2022-08-26T17:53:56.236Z,26.40
2022-08-26T17:56:47.754Z,28.60
2022-08-26T17:58:00.357Z,26.10
2022-08-26T18:00:52.992Z,28.40
2022-08-26T18:02:09.119Z,25.80
2022-08-26T18:04:57.520Z,28.20
2022-08-26T18:06:15.207Z,25.50
2022-08-26T18:09:01.255Z,28.10
2022-08-26T18:10:20.927Z,25.20
2022-08-26T18:13:05.704Z,28.00
2022-08-26T18:14:25.788Z,25.00
2022-08-26T18:17:09.333Z,27.90
2022-08-26T18:18:32.406Z,24.80
2022-08-26T18:21:18.633Z,27.80
2022-08-26T18:22:36.347Z,24.50
2022-08-26T18:25:22.335Z,27.70
2022-08-26T18:26:48.287Z,24.40
2022-08-26T18:29:25.736Z,27.60
2022-08-26T18:30:53.315Z,24.20
2022-08-26T18:33:29.211Z,27.60
2022-08-26T18:35:00.865Z,24.10
2022-08-26T18:37:32.692Z,27.60
2022-08-26T18:39:11.048Z,23.90
2022-08-26T18:41:46.219Z,27.60
2022-08-26T18:43:16.737Z,23.80
2022-08-26T18:45:49.728Z,27.50
2022-08-26T18:47:24.956Z,23.50
2022-08-26T18:49:53.308Z,27.40
2022-08-26T18:51:31.530Z,23.40
2022-08-26T18:53:58.905Z,27.10
2022-08-26T18:55:36.044Z,23.20
2022-08-26T18:58:02.454Z,27.00
2022-08-26T18:59:41.768Z,23.00
2022-08-26T19:02:06.186Z,26.90
2022-08-26T19:03:50.144Z,22.90
2022-08-26T19:06:18.341Z,26.80
2022-08-26T19:07:54.234Z,22.90
2022-08-26T19:10:21.800Z,26.70
2022-08-26T19:12:00.649Z,22.70
2022-08-26T19:14:26.709Z,26.60
2022-08-26T19:16:07.778Z,22.50
2022-08-26T19:18:30.776Z,26.60
2022-08-26T19:20:12.336Z,22.50
2022-08-26T19:22:37.549Z,26.40
2022-08-26T19:24:20.885Z,22.30
2022-08-26T19:26:42.253Z,26.20
2022-08-26T19:28:25.715Z,22.10
2022-08-26T19:30:51.259Z,26.00
2022-08-26T19:32:35.397Z,22.00
2022-08-26T19:34:56.396Z,25.70
2022-08-26T19:36:39.805Z,21.90
2022-08-26T19:39:00.533Z,25.60
2022-08-26T19:40:52.496Z,21.90
2022-08-26T19:43:05.335Z,25.40
2022-08-26T19:45:24.946Z,21.70
2022-08-26T19:47:11.956Z,25.10
2022-08-26T19:49:30.095Z,21.70
2022-08-26T19:51:18.007Z,24.90
2022-08-26T19:53:35.916Z,21.60
2022-08-26T19:55:22.807Z,24.80
2022-08-26T19:57:40.579Z,21.50
2022-08-26T19:59:26.148Z,24.60
2022-08-26T20:01:44.819Z,21.50
2022-08-26T20:03:33.599Z,24.50
2022-08-26T20:05:49.929Z,21.40
2022-08-26T20:07:37.393Z,24.40
2022-08-26T20:09:54.339Z,21.40
2022-08-26T20:11:41.253Z,24.30
2022-08-26T20:14:00.238Z,21.40
2022-08-26T20:15:45.821Z,24.10
2022-08-26T20:18:25.783Z,21.30
2022-08-26T20:20:21.854Z,23.90
2022-08-26T20:22:30.804Z,21.20
2022-08-26T20:24:32.924Z,23.80
2022-08-26T20:26:43.685Z,21.20
2022-08-26T20:28:36.675Z,23.70
2022-08-26T20:30:48.667Z,21.00
2022-08-26T20:32:40.986Z,23.60
2022-08-26T20:34:53.812Z,21.00
2022-08-26T20:36:45.320Z,23.50
2022-08-26T20:38:59.164Z,21.00
2022-08-26T20:40:49.428Z,23.30
2022-08-26T20:43:04.169Z,20.90
2022-08-26T20:44:54.597Z,23.30
2022-08-26T20:47:10.704Z,20.80
2022-08-26T20:49:01.182Z,23.30
2022-08-26T20:51:18.496Z,20.70
2022-08-26T20:53:05.555Z,23.20
2022-08-26T20:55:22.877Z,20.70
2022-08-26T20:57:08.931Z,23.20
2022-08-26T20:59:27.835Z,20.70
2022-08-26T21:01:20.060Z,23.10
2022-08-26T21:03:33.711Z,20.60
2022-08-26T21:05:23.828Z,23.10
2022-08-26T21:07:37.776Z,20.60
2022-08-26T21:09:27.663Z,23.10
2022-08-26T21:11:44.976Z,20.50
2022-08-26T21:13:42.838Z,23.00
2022-08-26T21:15:48.935Z,20.50
2022-08-26T21:17:52.243Z,23.00
2022-08-26T21:19:53.016Z,20.40
2022-08-26T21:21:55.663Z,22.90
2022-08-26T21:23:56.898Z,20.30
2022-08-26T21:26:03.935Z,22.90
2022-08-26T21:28:00.857Z,20.20
2022-08-26T21:30:08.274Z,22.80
2022-08-26T21:32:06.650Z,20.20
2022-08-26T21:34:11.817Z,22.70
2022-08-26T21:36:16.701Z,20.20
2022-08-26T21:38:15.326Z,22.70
2022-08-26T21:40:20.845Z,20.20
2022-08-26T21:42:18.840Z,22.70
2022-08-26T21:44:25.126Z,20.20
2022-08-26T21:46:24.845Z,22.60
2022-08-26T21:48:34.644Z,20.10
2022-08-26T21:50:29.790Z,22.50
2022-08-26T21:52:40.497Z,20.00
2022-08-26T21:54:34.514Z,22.40
2022-08-26T21:56:47.829Z,20.00
2022-08-26T21:58:39.058Z,22.20
2022-08-26T22:00:52.371Z,20.00
2022-08-26T22:02:42.822Z,22.10
2022-08-26T22:04:56.826Z,19.90
2022-08-26T22:06:49.476Z,22.10
2022-08-26T22:09:00.955Z,19.90
2022-08-26T22:10:54.970Z,22.00
2022-08-26T22:13:04.848Z,19.80
2022-08-26T22:14:59.564Z,22.00
2022-08-26T22:17:12.342Z,19.70
2022-08-26T22:19:04.420Z,21.90
2022-08-26T22:21:21.119Z,19.70
2022-08-26T22:23:08.784Z,21.90
2022-08-26T22:25:25.438Z,19.60
2022-08-26T22:27:13.904Z,21.80
2022-08-26T22:29:29.175Z,19.60
2022-08-26T22:31:18.622Z,21.70
2022-08-26T22:33:33.677Z,19.50
2022-08-26T22:35:29.225Z,21.70
2022-08-26T22:37:37.617Z,19.50
2022-08-26T22:39:33.104Z,21.60
2022-08-26T22:41:45.919Z,19.50
2022-08-26T22:43:37.363Z,21.50
2022-08-26T22:45:50.932Z,19.50
2022-08-26T22:47:41.866Z,21.40
2022-08-26T22:49:54.938Z,19.50
2022-08-26T22:51:46.277Z,21.20
2022-08-26T22:53:59.287Z,19.40
2022-08-26T22:55:49.952Z,21.20
2022-08-26T22:58:04.045Z,19.30
2022-08-26T22:59:54.184Z,21.20
2022-08-26T23:02:09.032Z,19.30
2022-08-26T23:03:59.827Z,21.10
2022-08-26T23:06:16.147Z,19.20
2022-08-26T23:08:04.861Z,21.10
2022-08-26T23:10:20.100Z,19.20
2022-08-26T23:12:08.750Z,21.10
2022-08-26T23:14:27.415Z,19.20
2022-08-26T23:16:13.711Z,21.10
2022-08-26T23:18:31.891Z,19.20
2022-08-26T23:20:18.991Z,21.00
2022-08-26T23:22:35.892Z,19.20
2022-08-26T23:24:22.421Z,20.90
2022-08-26T23:26:41.829Z,19.20
2022-08-26T23:28:26.667Z,20.90
2022-08-26T23:32:30.104Z,20.90
2022-08-26T23:36:35.091Z,20.80
2022-08-26T23:40:39.636Z,20.70
2022-08-26T23:44:43.894Z,20.70
2022-08-26T23:48:47.790Z,20.60
2022-08-26T23:53:06.444Z,20.60
2022-08-26T23:57:10.355Z,20.60
